MUHA/HAV METAR and TAF weather

Enter ICAO airport designator
Station Type Date Time Source
MUHA METAR 2020/08/12 18:55 UTC NOAA

MUHA 121855Z 12007KT 090V160 9000 SCT030 33/24 Q1014


Station Type Date Time Source
MUHA Decoded METAR 2020/08/12 18:55 UTC NOAA

Aeropuerto Jose Marti, Rancho-Boyeros, Habana, Cuba (MUHA) 22-59N 082-24W 75M
Aug 12, 2020 - 02:55 PM EDT / 2020.08.12 1855 UTC
Wind: from the ESE (120 degrees) at 8 MPH (7 KT) (direction variable):0
Visibility: 5 mile(s):0
Sky conditions: partly cloudy
Temperature: 91 F (33 C)
Heat index: 101.5 F (38.6 C):1
Dew Point: 75 F (24 C)
Relative Humidity: 59%
Pressure (altimeter): 29.94 in. Hg (1014 hPa)
ob: MUHA 121855Z 12007KT 090V160 9000 SCT030 33/24 Q1014
cycle: 19

Station Type Date Time Source
MUHA TAF 2020/08/12 18:03 UTC NOAA

TAF MUHA 121700Z 1218/1318 09008KT 9000 SCT020
TEMPO 1219/1222 VRB10KT 3000 TSRA SCT018CB BKN020
BECMG 1303/1305 VRB03KT FEW030
BECMG 1315/1317 09009KT

Example: see airport list